createdAt,value
2018-10-18T00:00:32.631Z,101313.00
2018-10-18T00:03:02.009Z,101317.00
2018-10-18T00:05:31.851Z,101315.00
2018-10-18T00:08:01.350Z,101308.00
2018-10-18T00:10:30.791Z,101312.00
2018-10-18T00:13:00.159Z,101323.00
2018-10-18T00:15:29.579Z,101324.00
2018-10-18T00:17:59.013Z,101331.00
2018-10-18T00:20:28.408Z,101327.00
2018-10-18T00:22:57.800Z,101328.00
2018-10-18T00:25:27.210Z,101329.00
2018-10-18T00:27:56.689Z,101333.00
2018-10-18T00:30:27.179Z,101332.00
2018-10-18T00:32:57.661Z,101333.00
2018-10-18T00:35:27.060Z,101344.00
2018-10-18T00:37:56.430Z,101345.00
2018-10-18T00:40:25.745Z,101345.00
2018-10-18T00:42:55.178Z,101338.00
2018-10-18T00:45:26.576Z,101341.00
2018-10-18T00:47:56.099Z,101341.00
2018-10-18T00:50:25.431Z,101340.00
2018-10-18T00:52:54.845Z,101342.00
2018-10-18T00:55:24.146Z,101347.00
2018-10-18T00:57:53.595Z,101341.00
2018-10-18T01:00:23.012Z,101342.00
2018-10-18T01:02:56.408Z,101344.00
2018-10-18T01:05:25.761Z,101347.00
2018-10-18T01:07:55.174Z,101346.00
2018-10-18T01:10:24.539Z,101350.00
2018-10-18T01:12:53.994Z,101347.00
2018-10-18T01:15:23.369Z,101347.00
2018-10-18T01:17:52.925Z,101346.00
2018-10-18T01:20:22.364Z,101355.00
2018-10-18T01:22:51.797Z,101345.00
2018-10-18T01:25:21.116Z,101359.00
2018-10-18T01:27:50.771Z,101350.00
2018-10-18T01:30:20.267Z,101360.00
2018-10-18T01:32:49.789Z,101352.00
2018-10-18T01:35:19.131Z,101364.00
2018-10-18T01:37:48.425Z,101361.00
2018-10-18T01:40:17.790Z,101349.00
2018-10-18T01:42:47.187Z,101363.00
2018-10-18T01:45:16.763Z,101352.00
2018-10-18T01:47:46.155Z,101346.00
2018-10-18T01:50:15.674Z,101349.00
2018-10-18T01:52:44.911Z,101342.00
2018-10-18T01:55:14.284Z,101347.00
2018-10-18T01:57:43.675Z,101351.00
2018-10-18T02:00:13.187Z,101357.00
2018-10-18T02:02:42.687Z,101357.00
2018-10-18T02:05:12.101Z,101361.00
2018-10-18T02:07:41.453Z,101360.00
2018-10-18T02:10:10.797Z,101356.00
2018-10-18T02:12:40.380Z,101356.00
2018-10-18T02:15:10.824Z,101355.00
2018-10-18T02:17:40.605Z,101351.00
2018-10-18T02:20:10.868Z,101346.00
2018-10-18T02:22:40.840Z,101344.00
2018-10-18T02:25:10.395Z,101344.00
2018-10-18T02:27:39.690Z,101345.00
2018-10-18T02:30:09.223Z,101345.00
2018-10-18T02:32:39.015Z,101343.00
2018-10-18T02:35:08.673Z,101339.00
2018-10-18T02:37:38.254Z,101341.00
2018-10-18T02:40:07.902Z,101344.00
2018-10-18T02:42:37.303Z,101355.00
2018-10-18T02:45:06.717Z,101352.00
2018-10-18T02:47:36.153Z,101355.00
2018-10-18T02:50:25.612Z,101350.00
2018-10-18T02:52:55.086Z,101347.00
2018-10-18T02:55:24.508Z,101347.00
2018-10-18T02:57:53.850Z,101344.00
2018-10-18T03:00:23.259Z,101338.00
2018-10-18T03:02:52.641Z,101343.00
2018-10-18T03:05:22.224Z,101346.00
2018-10-18T03:07:51.609Z,101343.00
2018-10-18T03:10:20.987Z,101356.00
2018-10-18T03:12:50.409Z,101348.00
2018-10-18T03:15:19.858Z,101363.00
2018-10-18T03:17:49.458Z,101359.00
2018-10-18T03:20:19.106Z,101371.00
2018-10-18T03:22:48.443Z,101370.00
2018-10-18T03:25:18.066Z,101374.00
2018-10-18T03:27:47.412Z,101376.00
2018-10-18T03:30:16.851Z,101377.00
2018-10-18T03:32:48.340Z,101379.00
2018-10-18T03:35:17.700Z,101380.00
2018-10-18T03:37:47.133Z,101387.00
2018-10-18T03:40:16.579Z,101375.00
2018-10-18T03:42:45.985Z,101383.00
2018-10-18T03:45:15.581Z,101379.00
2018-10-18T03:47:44.905Z,101379.00
2018-10-18T03:50:14.313Z,101382.00
2018-10-18T03:52:43.685Z,101381.00
2018-10-18T03:55:13.318Z,101381.00
2018-10-18T03:57:42.636Z,101380.00
2018-10-18T04:00:12.179Z,101376.00
2018-10-18T04:02:41.673Z,101384.00
2018-10-18T04:05:12.088Z,101378.00
2018-10-18T04:07:41.511Z,101379.00
2018-10-18T04:10:10.901Z,101382.00
2018-10-18T04:12:40.319Z,101388.00
2018-10-18T04:15:09.762Z,101389.00
2018-10-18T04:17:39.078Z,101385.00
2018-10-18T04:20:11.036Z,101384.00
2018-10-18T04:22:40.407Z,101386.00
2018-10-18T04:25:14.774Z,101387.00
2018-10-18T04:27:44.190Z,101385.00
2018-10-18T04:30:13.702Z,101384.00
2018-10-18T04:32:42.927Z,101377.00
2018-10-18T04:35:12.274Z,101384.00
2018-10-18T04:37:41.854Z,101401.00
2018-10-18T04:40:11.209Z,101390.00
2018-10-18T04:42:40.771Z,101391.00
2018-10-18T04:45:10.162Z,101387.00
2018-10-18T04:47:39.636Z,101395.00
2018-10-18T04:50:09.750Z,101403.00
2018-10-18T04:52:39.166Z,101399.00
2018-10-18T04:55:08.606Z,101400.00
2018-10-18T04:57:38.051Z,101407.00
2018-10-18T05:00:08.076Z,101410.00
2018-10-18T05:02:37.511Z,101413.00
2018-10-18T05:05:23.809Z,101407.00
2018-10-18T05:07:53.297Z,101418.00
2018-10-18T05:10:26.931Z,101406.00
2018-10-18T05:12:56.440Z,101413.00
2018-10-18T05:15:25.815Z,101417.00
2018-10-18T05:17:55.496Z,101416.00
2018-10-18T05:20:25.100Z,101413.00
2018-10-18T05:22:54.990Z,101411.00
2018-10-18T05:25:24.880Z,101404.00
2018-10-18T05:27:54.252Z,101406.00
2018-10-18T05:30:24.093Z,101392.00
2018-10-18T05:32:53.535Z,101398.00
2018-10-18T05:35:23.040Z,101401.00
2018-10-18T05:37:52.667Z,101406.00
2018-10-18T05:40:21.969Z,101398.00
2018-10-18T05:42:51.472Z,101409.00
2018-10-18T05:45:20.810Z,101404.00
2018-10-18T05:47:50.250Z,101404.00
2018-10-18T05:50:19.683Z,101424.00
2018-10-18T05:52:49.204Z,101418.00
2018-10-18T05:55:18.728Z,101423.00
2018-10-18T05:57:50.163Z,101421.00
2018-10-18T06:00:20.185Z,101427.00
2018-10-18T06:02:49.599Z,101424.00
2018-10-18T06:05:19.326Z,101429.00
2018-10-18T06:07:48.787Z,101440.00
2018-10-18T06:10:35.188Z,101434.00
2018-10-18T06:13:04.559Z,101433.00
2018-10-18T06:15:33.877Z,101441.00
2018-10-18T06:18:03.274Z,101443.00
2018-10-18T06:20:32.794Z,101438.00
2018-10-18T06:23:04.031Z,101440.00
2018-10-18T06:25:34.469Z,101440.00
2018-10-18T06:28:03.923Z,101443.00
2018-10-18T06:30:33.287Z,101459.00
2018-10-18T06:33:02.676Z,101444.00
2018-10-18T06:35:34.306Z,101455.00
2018-10-18T06:38:04.033Z,101460.00
2018-10-18T06:40:33.468Z,101457.00
2018-10-18T06:43:06.300Z,101465.00
2018-10-18T06:45:35.798Z,101470.00
2018-10-18T06:48:05.690Z,101475.00
2018-10-18T06:50:35.026Z,101479.00
2018-10-18T06:53:04.566Z,101487.00
2018-10-18T06:55:34.030Z,101482.00
2018-10-18T06:58:03.696Z,101494.00
2018-10-18T07:00:33.179Z,101494.00
2018-10-18T07:03:02.954Z,101502.00
2018-10-18T07:05:32.311Z,101505.00
2018-10-18T07:08:01.681Z,101509.00
2018-10-18T07:10:31.117Z,101505.00
2018-10-18T07:13:00.464Z,101499.00
2018-10-18T07:15:29.859Z,101499.00
2018-10-18T07:17:59.251Z,101498.00
2018-10-18T07:20:28.695Z,101507.00
2018-10-18T07:22:58.142Z,101506.00
2018-10-18T07:25:27.627Z,101509.00
2018-10-18T07:27:56.980Z,101507.00
2018-10-18T07:30:26.403Z,101503.00
2018-10-18T07:32:55.846Z,101518.00
2018-10-18T07:35:25.264Z,101514.00
2018-10-18T07:37:54.678Z,101518.00
2018-10-18T07:40:24.076Z,101517.00
2018-10-18T07:42:53.496Z,101511.00
2018-10-18T07:45:22.919Z,101524.00
2018-10-18T07:47:52.347Z,101520.00
2018-10-18T07:50:21.769Z,101528.00
2018-10-18T07:52:51.186Z,101528.00
2018-10-18T07:55:20.569Z,101534.00
2018-10-18T07:57:50.102Z,101527.00
2018-10-18T08:00:19.661Z,101526.00
2018-10-18T08:02:49.051Z,101534.00
2018-10-18T08:05:18.410Z,101530.00
2018-10-18T08:07:47.816Z,101531.00
2018-10-18T08:10:18.614Z,101539.00
2018-10-18T08:12:48.101Z,101544.00
2018-10-18T08:15:18.027Z,101534.00
2018-10-18T08:17:47.366Z,101529.00
2018-10-18T08:20:16.806Z,101532.00
2018-10-18T08:22:46.244Z,101528.00
2018-10-18T08:25:16.907Z,101531.00
2018-10-18T08:27:46.388Z,101525.00
2018-10-18T08:30:15.881Z,101525.00
2018-10-18T08:32:45.446Z,101525.00
2018-10-18T08:35:14.910Z,101520.00
2018-10-18T08:37:44.491Z,101529.00
2018-10-18T08:40:13.785Z,101531.00
2018-10-18T08:42:43.263Z,101527.00
2018-10-18T08:45:12.834Z,101523.00
2018-10-18T08:47:42.287Z,101529.00
2018-10-18T08:50:12.627Z,101528.00
2018-10-18T08:52:41.955Z,101522.00
2018-10-18T08:55:13.462Z,101533.00
2018-10-18T08:57:43.570Z,101530.00
2018-10-18T09:00:13.776Z,101534.00
2018-10-18T09:02:43.465Z,101536.00
2018-10-18T09:05:12.872Z,101530.00
2018-10-18T09:07:42.373Z,101531.00
2018-10-18T09:10:12.162Z,101532.00
2018-10-18T09:12:41.561Z,101524.00
2018-10-18T09:15:11.626Z,101536.00
2018-10-18T09:17:40.986Z,101541.00
2018-10-18T09:20:10.375Z,101542.00
2018-10-18T09:22:39.818Z,101554.00
2018-10-18T09:25:10.404Z,101558.00
2018-10-18T09:27:40.449Z,101551.00
2018-10-18T09:30:12.371Z,101562.00
2018-10-18T09:32:44.509Z,101560.00
2018-10-18T09:35:13.916Z,101564.00
2018-10-18T09:37:43.342Z,101558.00
2018-10-18T09:40:12.696Z,101560.00
2018-10-18T09:42:42.153Z,101571.00
2018-10-18T09:45:12.653Z,101564.00
2018-10-18T09:47:42.153Z,101570.00
2018-10-18T09:50:12.590Z,101563.00
2018-10-18T09:52:41.989Z,101564.00
2018-10-18T09:55:13.226Z,101567.00
2018-10-18T09:57:42.719Z,101564.00
2018-10-18T10:00:17.352Z,101571.00
2018-10-18T10:02:50.357Z,101567.00
2018-10-18T10:05:20.683Z,101579.00
2018-10-18T10:07:50.063Z,101578.00
2018-10-18T10:10:19.437Z,101581.00
2018-10-18T10:12:48.921Z,101583.00
2018-10-18T10:15:18.295Z,101582.00
2018-10-18T10:17:47.795Z,101585.00
2018-10-18T10:20:17.081Z,101590.00
2018-10-18T10:22:46.538Z,101581.00
2018-10-18T10:25:16.273Z,101581.00
2018-10-18T10:27:45.725Z,101588.00
2018-10-18T10:30:15.199Z,101585.00
2018-10-18T10:32:44.651Z,101585.00
2018-10-18T10:35:14.118Z,101589.00
2018-10-18T10:37:43.949Z,101586.00
2018-10-18T10:40:13.398Z,101581.00
2018-10-18T10:42:43.153Z,101582.00
2018-10-18T10:45:13.347Z,101590.00
2018-10-18T10:47:42.654Z,101593.00
2018-10-18T10:50:12.262Z,101581.00
2018-10-18T10:52:41.544Z,101591.00
2018-10-18T10:55:11.455Z,101589.00
2018-10-18T10:57:40.822Z,101585.00
2018-10-18T11:00:10.308Z,101584.00
2018-10-18T11:02:39.597Z,101589.00
2018-10-18T11:05:09.065Z,101582.00
2018-10-18T11:07:38.471Z,101587.00
2018-10-18T11:10:07.933Z,101591.00
2018-10-18T11:12:37.403Z,101593.00
2018-10-18T11:15:07.033Z,101591.00
2018-10-18T11:17:36.454Z,101587.00
2018-10-18T11:20:06.000Z,101580.00
2018-10-18T11:22:35.486Z,101585.00
2018-10-18T11:25:05.285Z,101578.00
2018-10-18T11:27:34.664Z,101584.00
2018-10-18T11:30:04.134Z,101583.00
2018-10-18T11:32:33.466Z,101578.00
2018-10-18T11:35:03.503Z,101581.00
2018-10-18T11:37:32.915Z,101583.00
2018-10-18T11:40:02.311Z,101578.00
2018-10-18T11:42:31.715Z,101580.00
2018-10-18T11:45:01.131Z,101580.00
2018-10-18T11:47:30.517Z,101576.00
2018-10-18T11:49:59.927Z,101573.00
2018-10-18T11:52:29.324Z,101574.00
2018-10-18T11:54:58.670Z,101579.00
2018-10-18T11:57:28.126Z,101575.00
2018-10-18T11:59:57.768Z,101581.00
2018-10-18T12:02:27.186Z,101569.00
2018-10-18T12:04:56.570Z,101570.00
2018-10-18T12:07:25.981Z,101569.00
2018-10-18T12:09:55.385Z,101566.00
2018-10-18T12:12:25.039Z,101564.00
2018-10-18T12:14:54.363Z,101571.00
2018-10-18T12:17:23.806Z,101570.00
2018-10-18T12:19:53.234Z,101573.00
2018-10-18T12:22:22.546Z,101579.00
2018-10-18T12:24:53.047Z,101561.00
2018-10-18T12:27:22.426Z,101572.00
2018-10-18T12:29:51.868Z,101576.00
2018-10-18T12:32:21.328Z,101577.00
2018-10-18T12:34:50.760Z,101576.00
2018-10-18T12:37:20.242Z,101565.00
2018-10-18T12:39:49.708Z,101567.00
2018-10-18T12:42:19.273Z,101572.00
2018-10-18T12:44:48.640Z,101578.00
2018-10-18T12:47:18.016Z,101581.00
2018-10-18T12:49:48.558Z,101584.00
2018-10-18T12:52:17.965Z,101583.00
2018-10-18T12:54:47.400Z,101584.00
2018-10-18T12:57:16.759Z,101587.00
2018-10-18T13:00:01.559Z,101582.00
2018-10-18T13:02:31.306Z,101592.00
2018-10-18T13:05:00.669Z,101579.00
2018-10-18T13:07:30.089Z,101588.00
2018-10-18T13:09:59.456Z,101588.00
2018-10-18T13:12:28.963Z,101579.00
2018-10-18T13:14:58.164Z,101590.00
2018-10-18T13:17:27.536Z,101587.00
2018-10-18T13:19:56.951Z,101592.00
2018-10-18T13:22:26.378Z,101590.00
2018-10-18T13:24:59.661Z,101592.00
2018-10-18T13:27:29.100Z,101590.00
2018-10-18T13:29:58.442Z,101591.00
2018-10-18T13:32:27.782Z,101589.00
2018-10-18T13:34:57.187Z,101599.00
2018-10-18T13:37:33.188Z,101596.00
2018-10-18T13:40:02.863Z,101594.00
2018-10-18T13:42:32.262Z,101596.00
2018-10-18T13:45:01.874Z,101602.00
2018-10-18T13:47:31.406Z,101598.00
2018-10-18T13:50:00.801Z,101592.00
2018-10-18T13:52:32.649Z,101599.00
2018-10-18T13:55:02.289Z,101597.00
2018-10-18T13:57:32.767Z,101597.00
2018-10-18T14:00:30.138Z,101592.00
2018-10-18T14:02:59.618Z,101599.00
2018-10-18T14:05:29.217Z,101588.00
2018-10-18T14:07:58.635Z,101591.00
2018-10-18T14:10:27.946Z,101585.00
2018-10-18T14:12:57.563Z,101582.00
2018-10-18T14:15:26.985Z,101590.00
2018-10-18T14:17:56.351Z,101588.00
2018-10-18T14:20:25.772Z,101585.00
2018-10-18T14:22:55.145Z,101591.00
2018-10-18T14:25:26.564Z,101582.00
2018-10-18T14:27:55.979Z,101581.00
2018-10-18T14:30:25.474Z,101591.00
2018-10-18T14:32:54.847Z,101577.00
2018-10-18T14:35:24.374Z,101587.00
2018-10-18T14:37:53.821Z,101588.00
2018-10-18T14:40:23.184Z,101586.00
2018-10-18T14:42:52.642Z,101586.00
2018-10-18T14:45:22.108Z,101577.00
2018-10-18T14:47:51.511Z,101586.00
2018-10-18T14:50:21.018Z,101584.00
2018-10-18T14:52:50.345Z,101585.00
2018-10-18T14:55:19.684Z,101582.00
2018-10-18T14:57:49.085Z,101589.00
2018-10-18T15:00:18.485Z,101590.00
2018-10-18T15:02:47.992Z,101591.00
2018-10-18T15:05:17.494Z,101584.00
2018-10-18T15:07:46.904Z,101586.00
2018-10-18T15:10:16.237Z,101590.00
2018-10-18T15:12:45.604Z,101588.00
2018-10-18T15:15:15.247Z,101577.00
2018-10-18T15:17:44.886Z,101583.00
2018-10-18T15:20:14.327Z,101579.00
2018-10-18T15:22:44.061Z,101584.00
2018-10-18T15:25:14.181Z,101568.00
2018-10-18T15:27:43.802Z,101579.00
2018-10-18T15:30:13.702Z,101575.00
2018-10-18T15:32:43.064Z,101589.00
2018-10-18T15:35:12.967Z,101586.00
2018-10-18T15:37:42.420Z,101590.00
2018-10-18T15:40:11.881Z,101589.00
2018-10-18T15:42:41.311Z,101597.00
2018-10-18T15:45:11.117Z,101601.00
2018-10-18T15:47:46.227Z,101591.00
2018-10-18T15:50:15.682Z,101600.00
2018-10-18T15:52:45.018Z,101601.00
2018-10-18T15:55:14.473Z,101604.00
2018-10-18T15:57:43.803Z,101601.00
2018-10-18T16:00:13.172Z,101605.00
2018-10-18T16:02:42.907Z,101612.00
2018-10-18T16:05:12.726Z,101609.00
2018-10-18T16:07:42.103Z,101623.00
2018-10-18T16:10:11.574Z,101616.00
2018-10-18T16:12:40.990Z,101626.00
2018-10-18T16:15:11.232Z,101631.00
2018-10-18T16:17:40.672Z,101641.00
2018-10-18T16:20:10.765Z,101633.00
2018-10-18T16:22:40.773Z,101636.00
2018-10-18T16:25:11.419Z,101637.00
2018-10-18T16:27:41.774Z,101644.00
2018-10-18T16:30:14.941Z,101641.00
2018-10-18T16:32:44.852Z,101643.00
2018-10-18T16:35:14.872Z,101644.00
2018-10-18T16:37:50.719Z,101642.00
2018-10-18T16:40:20.336Z,101650.00
2018-10-18T16:42:53.477Z,101648.00
2018-10-18T16:45:22.804Z,101646.00
2018-10-18T16:47:52.271Z,101646.00
2018-10-18T16:50:22.701Z,101654.00
2018-10-18T16:52:52.043Z,101660.00
2018-10-18T16:55:21.655Z,101661.00
2018-10-18T16:57:51.057Z,101660.00
2018-10-18T17:00:20.590Z,101673.00
2018-10-18T17:02:49.855Z,101673.00
2018-10-18T17:05:19.321Z,101679.00
2018-10-18T17:07:48.999Z,101680.00
2018-10-18T17:10:18.783Z,101675.00
2018-10-18T17:12:48.153Z,101679.00
2018-10-18T17:15:17.544Z,101681.00
2018-10-18T17:17:46.953Z,101680.00
2018-10-18T17:20:16.577Z,101681.00
2018-10-18T17:22:46.943Z,101686.00
2018-10-18T17:25:16.911Z,101675.00
2018-10-18T17:27:46.439Z,101683.00
2018-10-18T17:30:17.977Z,101684.00
2018-10-18T17:32:47.515Z,101689.00
2018-10-18T17:35:16.894Z,101692.00
2018-10-18T17:37:46.390Z,101688.00
2018-10-18T17:40:15.913Z,101687.00
2018-10-18T17:42:46.273Z,101685.00
2018-10-18T17:45:15.874Z,101688.00
2018-10-18T17:47:49.434Z,101693.00
2018-10-18T17:50:19.423Z,101693.00
2018-10-18T17:52:49.008Z,101701.00
2018-10-18T17:55:18.396Z,101703.00
2018-10-18T17:57:47.801Z,101706.00
2018-10-18T18:00:17.295Z,101708.00
2018-10-18T18:02:46.635Z,101706.00
2018-10-18T18:05:16.043Z,101705.00
2018-10-18T18:07:45.415Z,101703.00
2018-10-18T18:10:16.140Z,101691.00
2018-10-18T18:12:45.798Z,101701.00
2018-10-18T18:15:15.271Z,101701.00
2018-10-18T18:17:44.609Z,101700.00
2018-10-18T18:20:14.065Z,101699.00
2018-10-18T18:22:43.451Z,101706.00
2018-10-18T18:25:13.272Z,101707.00
2018-10-18T18:27:42.566Z,101716.00
2018-10-18T18:30:14.540Z,101705.00
2018-10-18T18:32:44.258Z,101721.00
2018-10-18T18:35:13.670Z,101717.00
2018-10-18T18:37:45.043Z,101717.00
2018-10-18T18:40:14.394Z,101723.00
2018-10-18T18:42:43.811Z,101730.00
2018-10-18T18:45:18.432Z,101721.00
2018-10-18T18:47:47.756Z,101733.00
2018-10-18T18:50:17.083Z,101728.00
2018-10-18T18:52:46.503Z,101730.00
2018-10-18T18:55:17.083Z,101730.00
2018-10-18T18:57:51.313Z,101735.00
2018-10-18T19:00:20.888Z,101737.00
2018-10-18T19:02:52.389Z,101738.00
2018-10-18T19:05:21.773Z,101737.00
2018-10-18T19:07:51.064Z,101733.00
2018-10-18T19:10:20.497Z,101747.00
2018-10-18T19:12:49.991Z,101742.00
2018-10-18T19:15:19.431Z,101751.00
2018-10-18T19:17:50.733Z,101759.00
2018-10-18T19:20:20.156Z,101747.00
2018-10-18T19:22:49.539Z,101759.00
2018-10-18T19:25:18.900Z,101757.00
2018-10-18T19:27:48.266Z,101759.00
2018-10-18T19:30:17.737Z,101761.00
2018-10-18T19:32:47.042Z,101763.00
2018-10-18T19:35:16.381Z,101753.00
2018-10-18T19:37:47.865Z,101766.00
2018-10-18T19:40:20.316Z,101764.00
2018-10-18T19:42:49.654Z,101759.00
2018-10-18T19:45:20.723Z,101754.00
2018-10-18T19:47:50.453Z,101766.00
2018-10-18T19:50:20.677Z,101773.00
2018-10-18T19:52:54.688Z,101763.00
2018-10-18T19:55:24.364Z,101765.00
2018-10-18T19:57:53.769Z,101762.00
2018-10-18T20:00:23.170Z,101762.00
2018-10-18T20:02:52.542Z,101757.00
2018-10-18T20:05:26.106Z,101768.00
2018-10-18T20:07:55.645Z,101760.00
2018-10-18T20:10:25.001Z,101761.00
2018-10-18T20:12:54.430Z,101764.00
2018-10-18T20:15:23.789Z,101772.00
2018-10-18T20:17:53.126Z,101774.00
2018-10-18T20:20:23.598Z,101771.00
2018-10-18T20:22:52.957Z,101773.00
2018-10-18T20:25:22.418Z,101781.00
2018-10-18T20:27:51.697Z,101777.00
2018-10-18T20:30:21.201Z,101777.00
2018-10-18T20:32:50.605Z,101790.00
2018-10-18T20:35:20.097Z,101784.00
2018-10-18T20:37:49.535Z,101791.00
2018-10-18T20:40:19.055Z,101789.00
2018-10-18T20:42:48.433Z,101790.00
2018-10-18T20:45:22.998Z,101788.00
2018-10-18T20:47:52.436Z,101786.00
2018-10-18T20:50:21.875Z,101795.00
2018-10-18T20:52:51.221Z,101792.00
2018-10-18T20:55:20.542Z,101786.00
2018-10-18T20:57:49.872Z,101793.00
2018-10-18T21:00:19.233Z,101787.00
2018-10-18T21:02:48.671Z,101787.00
2018-10-18T21:05:18.014Z,101787.00
2018-10-18T21:07:47.332Z,101783.00
2018-10-18T21:10:16.714Z,101777.00
2018-10-18T21:12:46.055Z,101775.00
2018-10-18T21:15:15.590Z,101782.00
2018-10-18T21:17:44.783Z,101781.00
2018-10-18T21:20:14.133Z,101782.00
2018-10-18T21:22:43.513Z,101778.00
2018-10-18T21:25:12.872Z,101782.00
2018-10-18T21:27:42.541Z,101766.00
2018-10-18T21:30:11.849Z,101774.00
2018-10-18T21:32:41.321Z,101772.00
2018-10-18T21:35:10.779Z,101772.00
2018-10-18T21:37:40.067Z,101781.00
2018-10-18T21:40:09.440Z,101779.00
2018-10-18T21:42:38.783Z,101787.00
2018-10-18T21:45:08.240Z,101783.00
2018-10-18T21:47:37.670Z,101785.00
2018-10-18T21:50:07.438Z,101787.00
2018-10-18T21:52:36.785Z,101787.00
2018-10-18T21:55:07.894Z,101790.00
2018-10-18T21:57:37.244Z,101788.00
2018-10-18T22:00:13.126Z,101780.00
2018-10-18T22:02:43.540Z,101786.00
2018-10-18T22:05:13.752Z,101788.00
2018-10-18T22:07:43.440Z,101789.00
2018-10-18T22:10:13.565Z,101776.00
2018-10-18T22:12:42.955Z,101779.00
2018-10-18T22:15:12.371Z,101785.00
2018-10-18T22:17:41.742Z,101770.00
2018-10-18T22:20:11.380Z,101779.00
2018-10-18T22:22:40.731Z,101777.00
2018-10-18T22:25:10.206Z,101782.00
2018-10-18T22:27:39.849Z,101776.00
2018-10-18T22:30:09.460Z,101779.00
2018-10-18T22:32:38.849Z,101765.00
2018-10-18T22:35:08.270Z,101773.00
2018-10-18T22:37:37.587Z,101778.00
2018-10-18T22:40:08.003Z,101781.00
2018-10-18T22:42:37.405Z,101767.00
2018-10-18T22:45:08.299Z,101778.00
2018-10-18T22:47:37.734Z,101767.00
2018-10-18T22:50:07.139Z,101768.00
2018-10-18T22:52:36.441Z,101771.00
2018-10-18T22:55:06.386Z,101776.00
2018-10-18T22:57:35.752Z,101771.00
2018-10-18T23:00:06.398Z,101762.00
2018-10-18T23:02:35.995Z,101767.00
2018-10-18T23:05:05.758Z,101755.00
2018-10-18T23:07:37.189Z,101771.00
2018-10-18T23:10:07.162Z,101766.00
2018-10-18T23:12:36.485Z,101765.00
2018-10-18T23:15:08.343Z,101766.00
2018-10-18T23:17:38.206Z,101763.00
2018-10-18T23:20:08.775Z,101764.00
2018-10-18T23:22:38.227Z,101765.00
2018-10-18T23:25:07.658Z,101758.00
2018-10-18T23:27:36.988Z,101765.00
2018-10-18T23:30:08.018Z,101753.00
2018-10-18T23:32:37.373Z,101759.00
2018-10-18T23:35:07.130Z,101757.00
2018-10-18T23:37:36.574Z,101751.00
2018-10-18T23:40:06.255Z,101751.00
2018-10-18T23:42:35.665Z,101756.00
2018-10-18T23:45:05.712Z,101751.00
2018-10-18T23:47:35.146Z,101744.00
2018-10-18T23:50:04.726Z,101744.00
2018-10-18T23:52:34.209Z,101751.00
2018-10-18T23:55:03.695Z,101750.00
2018-10-18T23:57:33.085Z,101738.00
